sensor_id;sensor_type;location;lat;lon;timestamp;pressure;altitude;pressure_sealevel;temperature;humidity
48390;BME280;34643;47.964;7.982;2023-04-01T00:04:28;95670.28;;;18.47;61.40
48390;BME280;34643;47.964;7.982;2023-04-01T00:09:28;95663.78;;;18.51;61.45
48390;BME280;34643;47.964;7.982;2023-04-01T00:14:28;95662.16;;;18.50;61.71
48390;BME280;34643;47.964;7.982;2023-04-01T00:19:29;95654.19;;;18.51;61.69
48390;BME280;34643;47.964;7.982;2023-04-01T00:24:30;95629.69;;;18.52;61.68
48390;BME280;34643;47.964;7.982;2023-04-01T00:29:30;95625.66;;;18.58;61.71
48390;BME280;34643;47.964;7.982;2023-04-01T00:34:31;95606.41;;;18.59;61.91
48390;BME280;34643;47.964;7.982;2023-04-01T00:39:32;95616.03;;;18.58;61.69
48390;BME280;34643;47.964;7.982;2023-04-01T00:44:33;95620.75;;;18.55;61.95
48390;BME280;34643;47.964;7.982;2023-04-01T00:49:35;95617.13;;;18.56;62.02
48390;BME280;34643;47.964;7.982;2023-04-01T00:54:37;95627.31;;;18.59;62.22
48390;BME280;34643;47.964;7.982;2023-04-01T00:59:40;95609.53;;;18.62;62.15
48390;BME280;34643;47.964;7.982;2023-04-01T01:04:42;95609.91;;;18.68;62.17
48390;BME280;34643;47.964;7.982;2023-04-01T01:09:45;95605.19;;;18.71;62.29
48390;BME280;34643;47.964;7.982;2023-04-01T01:15:06;95588.53;;;18.72;62.23
48390;BME280;34643;47.964;7.982;2023-04-01T01:25:40;95588.22;;;18.75;62.37
48390;BME280;34643;47.964;7.982;2023-04-01T01:36:06;95586.94;;;18.79;62.15
48390;BME280;34643;47.964;7.982;2023-04-01T01:41:10;95586.13;;;18.79;62.41
48390;BME280;34643;47.964;7.982;2023-04-01T01:46:14;95585.31;;;18.78;62.34
48390;BME280;34643;47.964;7.982;2023-04-01T01:51:18;95571.25;;;18.79;62.45
48390;BME280;34643;47.964;7.982;2023-04-01T01:56:19;95581.56;;;18.81;62.26
48390;BME280;34643;47.964;7.982;2023-04-01T02:01:24;95585.16;;;18.80;62.44
48390;BME280;34643;47.964;7.982;2023-04-01T02:06:26;95589.56;;;18.79;62.39
48390;BME280;34643;47.964;7.982;2023-04-01T02:11:30;95580.91;;;18.79;62.45
48390;BME280;34643;47.964;7.982;2023-04-01T02:16:34;95569.63;;;18.78;62.45
48390;BME280;34643;47.964;7.982;2023-04-01T02:21:36;95607.84;;;18.79;62.21
48390;BME280;34643;47.964;7.982;2023-04-01T02:26:37;95603.63;;;18.78;62.55
48390;BME280;34643;47.964;7.982;2023-04-01T02:31:38;95614.75;;;18.80;62.28
48390;BME280;34643;47.964;7.982;2023-04-01T02:36:39;95603.19;;;18.83;62.46
48390;BME280;34643;47.964;7.982;2023-04-01T02:41:40;95601.25;;;18.85;62.33
48390;BME280;34643;47.964;7.982;2023-04-01T02:46:41;95598.31;;;18.88;62.44
48390;BME280;34643;47.964;7.982;2023-04-01T02:51:41;95596.53;;;18.89;62.33
48390;BME280;34643;47.964;7.982;2023-04-01T02:56:43;95613.19;;;18.88;62.48
48390;BME280;34643;47.964;7.982;2023-04-01T03:01:43;95610.28;;;18.91;62.47
48390;BME280;34643;47.964;7.982;2023-04-01T03:06:44;95601.44;;;18.92;62.49
48390;BME280;34643;47.964;7.982;2023-04-01T03:11:44;95594.59;;;18.91;62.71
48390;BME280;34643;47.964;7.982;2023-04-01T03:16:44;95600.50;;;18.93;62.67
48390;BME280;34643;47.964;7.982;2023-04-01T03:21:45;95585.59;;;18.93;62.54
48390;BME280;34643;47.964;7.982;2023-04-01T03:26:46;95603.75;;;18.95;62.38
48390;BME280;34643;47.964;7.982;2023-04-01T03:31:46;95619.44;;;18.95;62.52
48390;BME280;34643;47.964;7.982;2023-04-01T03:36:47;95609.97;;;18.94;62.55
48390;BME280;34643;47.964;7.982;2023-04-01T03:41:47;95624.81;;;18.93;62.42
48390;BME280;34643;47.964;7.982;2023-04-01T03:46:47;95628.59;;;18.91;62.65
48390;BME280;34643;47.964;7.982;2023-04-01T03:51:48;95631.19;;;18.91;62.41
48390;BME280;34643;47.964;7.982;2023-04-01T03:56:49;95618.94;;;18.91;62.51
48390;BME280;34643;47.964;7.982;2023-04-01T04:01:50;95613.84;;;18.90;62.53
48390;BME280;34643;47.964;7.982;2023-04-01T04:06:50;95597.22;;;18.91;62.61
48390;BME280;34643;47.964;7.982;2023-04-01T04:11:52;95585.59;;;18.93;62.48
48390;BME280;34643;47.964;7.982;2023-04-01T04:16:53;95593.97;;;18.97;62.58
48390;BME280;34643;47.964;7.982;2023-04-01T04:21:53;95611.47;;;18.96;62.56
48390;BME280;34643;47.964;7.982;2023-04-01T04:26:54;95590.41;;;18.98;62.65
48390;BME280;34643;47.964;7.982;2023-04-01T04:31:54;95593.97;;;18.97;62.71
48390;BME280;34643;47.964;7.982;2023-04-01T04:36:55;95599.88;;;18.99;62.72
48390;BME280;34643;47.964;7.982;2023-04-01T04:41:58;95591.06;;;19.00;62.59
48390;BME280;34643;47.964;7.982;2023-04-01T04:46:58;95600.38;;;19.03;62.83
48390;BME280;34643;47.964;7.982;2023-04-01T04:51:59;95592.53;;;19.03;62.69
48390;BME280;34643;47.964;7.982;2023-04-01T04:57:02;95584.69;;;19.03;62.62
48390;BME280;34643;47.964;7.982;2023-04-01T05:02:06;95576.03;;;19.02;62.72
48390;BME280;34643;47.964;7.982;2023-04-01T05:07:07;95585.53;;;19.03;62.94
48390;BME280;34643;47.964;7.982;2023-04-01T05:12:07;95577.16;;;18.99;62.83
48390;BME280;34643;47.964;7.982;2023-04-01T05:17:29;95565.88;;;18.99;62.80
48390;BME280;34643;47.964;7.982;2023-04-01T05:22:29;95583.34;;;18.98;62.85
48390;BME280;34643;47.964;7.982;2023-04-01T05:27:30;95566.03;;;18.97;62.90
48390;BME280;34643;47.964;7.982;2023-04-01T05:32:30;95568.66;;;18.97;62.87
48390;BME280;34643;47.964;7.982;2023-04-01T05:37:32;95576.31;;;18.99;63.03
48390;BME280;34643;47.964;7.982;2023-04-01T05:42:33;95572.91;;;18.98;62.99
48390;BME280;34643;47.964;7.982;2023-04-01T05:47:33;95573.72;;;18.99;63.14
48390;BME280;34643;47.964;7.982;2023-04-01T05:52:33;95572.31;;;19.05;63.01
48390;BME280;34643;47.964;7.982;2023-04-01T05:57:34;95576.53;;;19.06;63.13
48390;BME280;34643;47.964;7.982;2023-04-01T06:02:34;95571.97;;;19.08;63.18
48390;BME280;34643;47.964;7.982;2023-04-01T06:07:35;95569.88;;;19.11;63.39
48390;BME280;34643;47.964;7.982;2023-04-01T06:34:28;95576.97;;;19.19;63.77
48390;BME280;34643;47.964;7.982;2023-04-01T06:50:16;95542.31;;;19.17;63.60
48390;BME280;34643;47.964;7.982;2023-04-01T07:01:06;95551.16;;;19.24;63.70
48390;BME280;34643;47.964;7.982;2023-04-01T07:06:27;95541.88;;;19.30;63.72
48390;BME280;34643;47.964;7.982;2023-04-01T07:11:32;95544.50;;;19.30;63.63
48390;BME280;34643;47.964;7.982;2023-04-01T07:16:53;95552.03;;;19.33;64.11
48390;BME280;34643;47.964;7.982;2023-04-01T07:22:02;95558.38;;;19.30;63.54
48390;BME280;34643;47.964;7.982;2023-04-01T07:27:22;95550.97;;;19.17;63.59
48390;BME280;34643;47.964;7.982;2023-04-01T07:32:45;95562.03;;;19.11;63.14
48390;BME280;34643;47.964;7.982;2023-04-01T07:53:36;95564.44;;;17.51;53.09
48390;BME280;34643;47.964;7.982;2023-04-01T07:58:45;95582.63;;;17.33;51.92
48390;BME280;34643;47.964;7.982;2023-04-01T08:09:18;95574.50;;;16.99;51.02
48390;BME280;34643;47.964;7.982;2023-04-01T08:25:25;95591.53;;;16.73;50.62
48390;BME280;34643;47.964;7.982;2023-04-01T08:35:31;95600.16;;;16.54;50.09
48390;BME280;34643;47.964;7.982;2023-04-01T08:56:12;95608.16;;;17.29;51.88
48390;BME280;34643;47.964;7.982;2023-04-01T09:22:10;95616.25;;;17.74;53.44
48390;BME280;34643;47.964;7.982;2023-04-01T09:27:32;95616.78;;;17.77;54.11
48390;BME280;34643;47.964;7.982;2023-04-01T09:33:12;95621.59;;;17.82;54.29
48390;BME280;34643;47.964;7.982;2023-04-01T09:43:19;95627.03;;;17.89;54.46
48390;BME280;34643;47.964;7.982;2023-04-01T10:04:17;95634.56;;;18.01;55.24
48390;BME280;34643;47.964;7.982;2023-04-01T10:30:27;95653.44;;;18.13;55.48
48390;BME280;34643;47.964;7.982;2023-04-01T10:35:59;95640.25;;;18.15;55.79
48390;BME280;34643;47.964;7.982;2023-04-01T11:09:25;95663.41;;;18.28;56.14
48390;BME280;34643;47.964;7.982;2023-04-01T11:14:43;95666.69;;;18.30;56.24
48390;BME280;34643;47.964;7.982;2023-04-01T11:20:14;95675.34;;;18.30;56.04
48390;BME280;34643;47.964;7.982;2023-04-01T11:25:21;95693.50;;;18.32;56.30
48390;BME280;34643;47.964;7.982;2023-04-01T11:31:08;95688.28;;;18.32;56.22
48390;BME280;34643;47.964;7.982;2023-04-01T11:36:32;95690.56;;;18.35;56.13
48390;BME280;34643;47.964;7.982;2023-04-01T11:41:43;95702.81;;;18.34;56.15
48390;BME280;34643;47.964;7.982;2023-04-01T11:47:18;95700.88;;;18.36;56.09
48390;BME280;34643;47.964;7.982;2023-04-01T11:52:30;95722.75;;;18.35;56.28
48390;BME280;34643;47.964;7.982;2023-04-01T12:02:55;95717.22;;;18.38;56.28
48390;BME280;34643;47.964;7.982;2023-04-01T12:08:24;95699.78;;;18.39;56.25
48390;BME280;34643;47.964;7.982;2023-04-01T12:13:35;95691.81;;;18.40;56.40
48390;BME280;34643;47.964;7.982;2023-04-01T12:18:41;95706.50;;;18.41;56.46
48390;BME280;34643;47.964;7.982;2023-04-01T12:23:48;95710.75;;;18.42;56.28
48390;BME280;34643;47.964;7.982;2023-04-01T12:34:09;95708.81;;;18.45;56.32
48390;BME280;34643;47.964;7.982;2023-04-01T12:59:46;95698.75;;;18.50;56.35
48390;BME280;34643;47.964;7.982;2023-04-01T13:05:01;95699.56;;;18.50;56.55
48390;BME280;34643;47.964;7.982;2023-04-01T13:15:13;95709.06;;;18.51;56.53
48390;BME280;34643;47.964;7.982;2023-04-01T13:30:47;95714.97;;;18.53;56.61
48390;BME280;34643;47.964;7.982;2023-04-01T13:36:00;95704.38;;;18.55;56.65
48390;BME280;34643;47.964;7.982;2023-04-01T13:46:12;95690.16;;;18.57;56.49
48390;BME280;34643;47.964;7.982;2023-04-01T14:17:04;95664.13;;;18.66;56.52
48390;BME280;34643;47.964;7.982;2023-04-01T14:22:21;95648.13;;;18.69;56.66
48390;BME280;34643;47.964;7.982;2023-04-01T14:32:39;95656.94;;;18.68;56.71
48390;BME280;34643;47.964;7.982;2023-04-01T14:37:58;95662.19;;;18.68;56.57
48390;BME280;34643;47.964;7.982;2023-04-01T14:58:31;95707.88;;;18.64;56.72
48390;BME280;34643;47.964;7.982;2023-04-01T15:09:01;95699.06;;;18.65;56.83
48390;BME280;34643;47.964;7.982;2023-04-01T15:19:14;95699.88;;;18.65;56.87
48390;BME280;34643;47.964;7.982;2023-04-01T15:24:22;95698.25;;;18.64;56.54
48390;BME280;34643;47.964;7.982;2023-04-01T15:29:31;95707.03;;;18.63;56.82
48390;BME280;34643;47.964;7.982;2023-04-01T15:45:25;95696.88;;;18.60;56.64
48390;BME280;34643;47.964;7.982;2023-04-01T15:50:54;95700.47;;;18.59;56.84
48390;BME280;34643;47.964;7.982;2023-04-01T16:06:38;95710.69;;;18.52;56.87
48390;BME280;34643;47.964;7.982;2023-04-01T16:11:40;95715.38;;;18.49;56.93
48390;BME280;34643;47.964;7.982;2023-04-01T16:16:47;95730.25;;;18.48;56.92
48390;BME280;34643;47.964;7.982;2023-04-01T16:21:57;95726.97;;;18.46;57.07
48390;BME280;34643;47.964;7.982;2023-04-01T16:27:04;95727.91;;;18.45;56.91
48390;BME280;34643;47.964;7.982;2023-04-01T16:37:13;95729.88;;;18.43;57.03
48390;BME280;34643;47.964;7.982;2023-04-01T16:42:21;95738.81;;;18.40;57.02
48390;BME280;34643;47.964;7.982;2023-04-01T16:47:31;95745.00;;;18.39;57.20
48390;BME280;34643;47.964;7.982;2023-04-01T16:58:14;95741.06;;;18.35;56.87
48390;BME280;34643;47.964;7.982;2023-04-01T17:03:30;95748.19;;;18.33;57.00
48390;BME280;34643;47.964;7.982;2023-04-01T17:14:01;95741.63;;;18.29;57.10
48390;BME280;34643;47.964;7.982;2023-04-01T17:29:28;95748.09;;;18.25;57.01
48390;BME280;34643;47.964;7.982;2023-04-01T17:34:37;95758.56;;;18.25;56.97
48390;BME280;34643;47.964;7.982;2023-04-01T17:39:46;95758.03;;;18.21;56.96
48390;BME280;34643;47.964;7.982;2023-04-01T17:44:55;95759.13;;;18.19;56.99
48390;BME280;34643;47.964;7.982;2023-04-01T18:00:45;95757.91;;;18.13;56.72
48390;BME280;34643;47.964;7.982;2023-04-01T18:06:05;95776.19;;;18.13;57.07
48390;BME280;34643;47.964;7.982;2023-04-01T18:26:31;95783.09;;;18.04;56.88
48390;BME280;34643;47.964;7.982;2023-04-01T18:31:36;95788.16;;;18.06;56.81
48390;BME280;34643;47.964;7.982;2023-04-01T18:41:53;95808.53;;;18.02;56.94
48390;BME280;34643;47.964;7.982;2023-04-01T18:47:16;95816.50;;;18.01;57.00
48390;BME280;34643;47.964;7.982;2023-04-01T18:52:36;95830.53;;;18.00;56.80
48390;BME280;34643;47.964;7.982;2023-04-01T19:03:11;95838.63;;;17.97;56.83
48390;BME280;34643;47.964;7.982;2023-04-01T19:13:40;95847.56;;;17.94;56.86
48390;BME280;34643;47.964;7.982;2023-04-01T19:24:12;95845.38;;;17.90;57.00
48390;BME280;34643;47.964;7.982;2023-04-01T19:45:11;95856.09;;;17.86;56.86
48390;BME280;34643;47.964;7.982;2023-04-01T19:50:26;95870.66;;;17.89;57.07
48390;BME280;34643;47.964;7.982;2023-04-01T19:55:44;95868.16;;;17.97;56.94
48390;BME280;34643;47.964;7.982;2023-04-01T20:00:57;95871.72;;;18.16;57.50
48390;BME280;34643;47.964;7.982;2023-04-01T20:06:01;95875.81;;;18.18;57.53
48390;BME280;34643;47.964;7.982;2023-04-01T20:16:21;95885.88;;;18.23;58.05
48390;BME280;34643;47.964;7.982;2023-04-01T20:21:41;95884.59;;;18.27;58.09
48390;BME280;34643;47.964;7.982;2023-04-01T20:26:43;95889.03;;;18.27;58.04
48390;BME280;34643;47.964;7.982;2023-04-01T20:42:12;95886.53;;;18.25;58.23
48390;BME280;34643;47.964;7.982;2023-04-01T20:52:49;95913.19;;;18.29;58.38
48390;BME280;34643;47.964;7.982;2023-04-01T21:02:48;95916.63;;;18.29;58.65
48390;BME280;34643;47.964;7.982;2023-04-01T21:33:41;95920.91;;;18.20;58.49
48390;BME280;34643;47.964;7.982;2023-04-01T21:38:52;95924.50;;;18.19;58.49
48390;BME280;34643;47.964;7.982;2023-04-01T21:49:24;95930.00;;;18.16;58.55
48390;BME280;34643;47.964;7.982;2023-04-01T22:04:56;95945.81;;;18.15;58.51
48390;BME280;34643;47.964;7.982;2023-04-01T22:20:59;95946.75;;;18.14;58.42
48390;BME280;34643;47.964;7.982;2023-04-01T22:26:06;95938.91;;;18.14;58.41
48390;BME280;34643;47.964;7.982;2023-04-01T22:31:10;95955.44;;;18.14;58.56
48390;BME280;34643;47.964;7.982;2023-04-01T22:41:20;95958.03;;;18.14;58.47
48390;BME280;34643;47.964;7.982;2023-04-01T22:57:00;95969.56;;;18.12;58.69
48390;BME280;34643;47.964;7.982;2023-04-01T23:02:13;95966.81;;;18.13;58.56
48390;BME280;34643;47.964;7.982;2023-04-01T23:07:27;95968.63;;;18.13;58.70
48390;BME280;34643;47.964;7.982;2023-04-01T23:12:30;95972.88;;;18.14;58.53
48390;BME280;34643;47.964;7.982;2023-04-01T23:27:37;95991.31;;;18.12;58.74
48390;BME280;34643;47.964;7.982;2023-04-01T23:32:39;95991.31;;;18.12;58.52
48390;BME280;34643;47.964;7.982;2023-04-01T23:37:41;96000.91;;;18.12;58.67
48390;BME280;34643;47.964;7.982;2023-04-01T23:42:41;95990.47;;;18.12;58.59
48390;BME280;34643;47.964;7.982;2023-04-01T23:47:41;96000.91;;;18.12;58.79
48390;BME280;34643;47.964;7.982;2023-04-01T23:52:52;96000.91;;;18.12;58.60
